createdAt,value
2022-08-20T05:22:02.100Z,98039.40
2022-08-20T05:25:11.791Z,98035.80
2022-08-20T05:28:24.708Z,98034.60
2022-08-20T05:31:33.714Z,98027.80
2022-08-20T05:34:41.886Z,98034.00
2022-08-20T05:37:50.112Z,98027.00
2022-08-20T05:40:58.392Z,98036.00
2022-08-20T05:44:10.215Z,98044.20
2022-08-20T05:47:19.339Z,98058.20
2022-08-20T05:50:30.140Z,98057.00
2022-08-20T05:53:38.615Z,98051.40
2022-08-20T05:56:47.002Z,98053.80
2022-08-20T05:59:56.052Z,98038.20
2022-08-20T06:03:22.177Z,98013.40
2022-08-20T06:06:45.749Z,98000.20
2022-08-20T06:09:55.140Z,98016.60
2022-08-20T06:13:03.564Z,98032.00
2022-08-20T06:16:11.543Z,98028.00
2022-08-20T06:19:25.004Z,98025.00
2022-08-20T06:22:34.630Z,98025.20
2022-08-20T06:25:43.333Z,98029.40
2022-08-20T06:28:51.230Z,98032.80
2022-08-20T06:32:02.863Z,98029.80
2022-08-20T06:35:18.046Z,98048.40
2022-08-20T06:38:27.968Z,98053.20
2022-08-20T06:41:37.943Z,98059.80
2022-08-20T06:44:50.274Z,98065.60
2022-08-20T06:48:01.425Z,98089.80
2022-08-20T06:51:10.446Z,98115.60
2022-08-20T06:54:18.260Z,98126.00
2022-08-20T06:57:26.715Z,98119.60
2022-08-20T07:00:37.633Z,98114.00
2022-08-20T07:03:55.097Z,98094.80
2022-08-20T07:07:04.477Z,98078.60
2022-08-20T07:10:18.374Z,98086.20
2022-08-20T07:13:26.357Z,98095.40
2022-08-20T07:16:35.615Z,98107.00
2022-08-20T07:19:43.747Z,98121.60
2022-08-20T07:22:52.703Z,98133.40
2022-08-20T07:26:00.815Z,98131.40
2022-08-20T07:29:09.051Z,98127.80
2022-08-20T07:32:36.917Z,98128.40
2022-08-20T07:35:49.173Z,98130.00
2022-08-20T07:38:57.729Z,98141.00
2022-08-20T07:42:07.992Z,98168.00
2022-08-20T07:45:18.809Z,98181.60
2022-08-20T07:48:32.050Z,98176.00
2022-08-20T07:51:40.607Z,98174.80
2022-08-20T07:54:48.621Z,98176.20
2022-08-20T07:57:56.574Z,98184.00
2022-08-20T08:01:05.322Z,98191.20
2022-08-20T08:04:13.472Z,98194.20
2022-08-20T08:07:22.384Z,98188.40
2022-08-20T08:10:30.724Z,98176.00
2022-08-20T08:13:42.603Z,98175.80
2022-08-20T08:16:51.127Z,98173.20
2022-08-20T08:19:59.641Z,98180.80
2022-08-20T08:23:07.978Z,98184.40
2022-08-20T08:26:22.552Z,98181.40
2022-08-20T08:29:30.584Z,98198.80
2022-08-20T08:32:59.997Z,98224.60
2022-08-20T08:36:09.831Z,98216.80
2022-08-20T08:39:18.107Z,98197.40
2022-08-20T08:42:40.053Z,98172.80
2022-08-20T08:46:02.421Z,98174.40
2022-08-20T08:49:14.717Z,98178.20
2022-08-20T08:52:27.913Z,98193.60
2022-08-20T08:55:36.225Z,98204.20
2022-08-20T08:58:45.380Z,98215.80
2022-08-20T09:01:57.602Z,98209.40
2022-08-20T09:05:17.687Z,98203.60
2022-08-20T09:08:31.677Z,98188.60
2022-08-20T09:11:54.127Z,98158.80
2022-08-20T09:15:02.077Z,98145.00
2022-08-20T09:18:10.323Z,98129.80
2022-08-20T09:21:18.710Z,98131.00
2022-08-20T09:24:26.695Z,98133.80
2022-08-20T09:27:34.659Z,98154.80
2022-08-20T09:30:44.493Z,98167.00
2022-08-20T09:33:55.017Z,98169.40
2022-08-20T09:37:03.211Z,98161.60
2022-08-20T09:40:14.820Z,98159.40
2022-08-20T09:43:31.340Z,98155.00
2022-08-20T09:46:39.647Z,98157.60
2022-08-20T09:49:48.227Z,98166.60
2022-08-20T09:52:59.143Z,98183.00
2022-08-20T09:56:10.050Z,98187.00
2022-08-20T09:59:19.105Z,98183.80
2022-08-20T10:02:27.299Z,98189.60
2022-08-20T10:05:35.439Z,98186.60
2022-08-20T10:08:43.507Z,98181.20
2022-08-20T10:11:51.514Z,98177.00
2022-08-20T10:14:59.619Z,98175.00
2022-08-20T10:18:09.306Z,98160.40
2022-08-20T10:21:20.933Z,98141.40
2022-08-20T10:24:29.716Z,98128.60
2022-08-20T10:27:38.396Z,98111.40
2022-08-20T10:30:49.554Z,98096.00
2022-08-20T10:33:58.096Z,98081.20
2022-08-20T10:51:42.121Z,98056.00
2022-08-20T10:54:50.672Z,98076.60
2022-08-20T10:57:58.738Z,98109.80
2022-08-20T11:01:06.752Z,98142.00
2022-08-20T11:04:14.688Z,98143.20
2022-08-20T11:07:55.439Z,98151.00
2022-08-20T11:11:01.227Z,98147.40
2022-08-20T11:14:09.363Z,98147.00
2022-08-20T11:17:22.468Z,98149.20
2022-08-20T11:20:32.250Z,98159.00
2022-08-20T11:23:38.495Z,98153.80
2022-08-20T11:26:48.302Z,98156.60
2022-08-20T11:29:57.284Z,98158.00
2022-08-20T11:33:06.085Z,98150.00
2022-08-20T11:36:14.409Z,98155.60
2022-08-20T11:39:22.369Z,98148.60
2022-08-20T11:42:31.121Z,98142.20
2022-08-20T11:45:39.420Z,98142.80
2022-08-20T11:48:47.259Z,98140.00
2022-08-20T11:51:58.521Z,98135.00
2022-08-20T11:55:09.454Z,98133.00
2022-08-20T11:58:17.427Z,98134.40
2022-08-20T12:01:25.332Z,98133.00
2022-08-20T12:04:35.009Z,98141.80
2022-08-20T12:07:46.949Z,98136.80
2022-08-20T12:10:54.789Z,98121.80
2022-08-20T12:14:02.948Z,98113.20
2022-08-20T12:17:18.155Z,98107.60
2022-08-20T12:20:26.560Z,98100.20
2022-08-20T12:23:34.544Z,98089.60
2022-08-20T12:26:42.479Z,98081.00
2022-08-20T12:29:53.409Z,98081.80
2022-08-20T12:33:01.857Z,98084.80
2022-08-20T12:36:11.153Z,98077.20
2022-08-20T12:39:19.237Z,98073.40
2022-08-20T12:42:29.352Z,98063.80
2022-08-20T12:45:38.919Z,98069.40
2022-08-20T12:48:46.933Z,98063.20
2022-08-20T12:51:54.733Z,98051.20
2022-08-20T12:58:38.622Z,98030.60
2022-08-20T13:01:55.509Z,98029.40
2022-08-20T13:05:04.642Z,98025.80
2022-08-20T13:08:15.223Z,98022.20
2022-08-20T13:11:23.155Z,98016.00
2022-08-20T13:14:31.366Z,98014.80
2022-08-20T13:17:39.690Z,98016.20
2022-08-20T13:20:48.332Z,98021.80
2022-08-20T13:23:56.559Z,98020.60
2022-08-20T13:27:13.241Z,98019.20
2022-08-20T13:30:24.361Z,98015.80
2022-08-20T13:33:32.670Z,98011.20
2022-08-20T13:36:41.005Z,98013.80
2022-08-20T13:39:49.867Z,98012.20
2022-08-20T13:42:58.153Z,98002.00
2022-08-20T13:46:06.694Z,98006.20
2022-08-20T13:49:14.656Z,98003.60
2022-08-20T13:52:22.724Z,98002.60
2022-08-20T13:55:32.946Z,97997.20
2022-08-20T13:58:42.313Z,98002.00
2022-08-20T14:01:50.092Z,98006.80
2022-08-20T14:04:58.749Z,98015.00
2022-08-20T14:08:15.135Z,98026.60
2022-08-20T14:11:23.599Z,98028.00
2022-08-20T14:14:31.650Z,98029.80
2022-08-20T14:17:42.899Z,98035.80
2022-08-20T14:20:51.436Z,98041.20
2022-08-20T14:24:02.069Z,98044.40
2022-08-20T14:27:11.004Z,98045.40
2022-08-20T14:30:23.009Z,98035.40
2022-08-20T14:33:30.745Z,98019.40
2022-08-20T14:36:38.972Z,97999.60
2022-08-20T14:39:49.083Z,97993.20
2022-08-20T14:42:59.599Z,97989.00
2022-08-20T14:46:08.830Z,97991.40
2022-08-20T14:49:15.486Z,97990.80
2022-08-20T14:52:27.673Z,98002.80
2022-08-20T14:55:39.509Z,98005.80
2022-08-20T14:58:47.454Z,98008.40
2022-08-20T15:01:56.335Z,98009.20
2022-08-20T15:05:07.056Z,98005.40
2022-08-20T15:08:15.963Z,98000.80
2022-08-20T15:11:23.829Z,98001.40
2022-08-20T15:18:45.050Z,98013.80
2022-08-20T15:25:03.179Z,98026.40
2022-08-20T15:28:12.712Z,98035.80
2022-08-20T15:31:19.732Z,98045.20
2022-08-20T15:34:27.543Z,98042.20
2022-08-20T15:37:35.643Z,98046.60
2022-08-20T15:40:43.466Z,98038.80
2022-08-20T15:43:51.606Z,98033.20
2022-08-20T15:47:13.392Z,98033.20
2022-08-20T15:50:35.720Z,98030.00
2022-08-20T15:53:55.220Z,98024.00
2022-08-20T15:57:08.997Z,98024.80
2022-08-20T16:00:21.999Z,98023.80
2022-08-20T16:03:58.062Z,98031.40
2022-08-20T16:07:19.972Z,98035.00
2022-08-20T16:10:41.189Z,98032.80
2022-08-20T16:13:57.442Z,98037.60
2022-08-20T16:17:12.807Z,98038.80
2022-08-20T16:20:32.972Z,98038.60
2022-08-20T16:23:46.945Z,98039.60
2022-08-20T16:27:14.133Z,98043.60
2022-08-20T16:30:32.393Z,98049.00
2022-08-20T16:33:54.098Z,98046.00
2022-08-20T16:37:22.533Z,98039.60
2022-08-20T16:40:35.677Z,98037.60
2022-08-20T16:43:55.091Z,98039.80
2022-08-20T16:47:13.770Z,98045.20
2022-08-20T16:50:28.903Z,98047.00
2022-08-20T16:53:38.313Z,98043.80
2022-08-20T16:56:49.694Z,98040.60
2022-08-20T17:00:13.426Z,98045.20
2022-08-20T17:03:40.202Z,98053.60
2022-08-20T17:06:53.409Z,98060.60
2022-08-20T17:10:21.621Z,98061.00
2022-08-20T17:13:35.054Z,98063.80
2022-08-20T17:16:48.490Z,98063.60
2022-08-20T17:20:07.339Z,98057.40
2022-08-20T17:23:18.775Z,98054.00
2022-08-20T17:26:35.388Z,98052.80
2022-08-20T17:29:58.052Z,98049.60
2022-08-20T17:33:09.914Z,98051.80
2022-08-20T17:36:26.782Z,98044.40
2022-08-20T17:39:35.073Z,98037.20
2022-08-20T17:42:57.051Z,98028.80
2022-08-20T17:46:12.067Z,98017.80
2022-08-20T17:49:34.411Z,98029.60
2022-08-20T17:52:48.352Z,98034.80
2022-08-20T17:56:02.592Z,98047.20
2022-08-20T17:59:23.985Z,98048.80
2022-08-20T18:02:45.099Z,98048.00
2022-08-20T18:06:03.479Z,98049.40
2022-08-20T18:09:24.435Z,98051.80
2022-08-20T18:12:41.921Z,98056.60
2022-08-20T18:16:01.855Z,98059.20
2022-08-20T18:19:24.040Z,98061.20
2022-08-20T18:22:36.815Z,98061.80
2022-08-20T18:25:51.860Z,98065.40
2022-08-20T18:29:11.294Z,98062.60
2022-08-20T18:32:40.565Z,98063.00
2022-08-20T18:35:48.721Z,98061.60
2022-08-20T18:39:07.050Z,98047.60
2022-08-20T18:42:31.180Z,98040.20
2022-08-20T18:45:40.785Z,98040.60
2022-08-20T18:49:03.201Z,98037.40
2022-08-20T18:52:20.142Z,98043.40
2022-08-20T18:55:38.791Z,98046.60
2022-08-20T18:59:01.815Z,98060.00
2022-08-20T19:02:28.037Z,98062.80
2022-08-20T19:05:51.626Z,98056.60
2022-08-20T19:09:11.378Z,98052.60
2022-08-20T19:13:15.490Z,98061.20
2022-08-20T19:16:34.181Z,98061.20
2022-08-20T19:19:43.075Z,98063.60
2022-08-20T19:22:54.079Z,98066.80
2022-08-20T19:26:12.468Z,98061.80
2022-08-20T19:29:38.886Z,98060.00
2022-08-20T19:32:55.511Z,98058.60
2022-08-20T19:36:17.727Z,98058.00
2022-08-20T19:39:31.124Z,98051.60
2022-08-20T19:42:46.495Z,98043.20
2022-08-20T19:45:58.063Z,98040.20
2022-08-20T19:49:30.602Z,98031.60
2022-08-20T19:52:51.749Z,98033.80
2022-08-20T19:56:06.862Z,98034.80
2022-08-20T19:59:23.317Z,98035.00
2022-08-20T20:02:35.218Z,98041.60
2022-08-20T20:05:56.038Z,98053.20
2022-08-20T20:09:09.129Z,98054.80
2022-08-20T20:12:23.082Z,98057.40
2022-08-20T20:15:32.386Z,98053.20
2022-08-20T20:18:44.574Z,98044.40
2022-08-20T20:22:19.181Z,98041.00
2022-08-20T20:25:45.238Z,98033.60
2022-08-20T20:29:03.555Z,98031.40
2022-08-20T20:32:22.958Z,98029.00
2022-08-20T20:35:35.609Z,98029.60
2022-08-20T20:38:56.431Z,98032.40
2022-08-20T20:42:09.581Z,98036.00
2022-08-20T20:45:22.565Z,98027.00
2022-08-20T20:48:43.997Z,98017.60
2022-08-20T20:52:04.118Z,98013.00
2022-08-20T20:55:24.259Z,98015.40
2022-08-20T20:58:32.584Z,98022.40
2022-08-20T21:01:49.254Z,98024.00
2022-08-20T21:04:58.429Z,98026.60
2022-08-20T21:08:09.941Z,98022.80
2022-08-20T21:11:17.930Z,98023.80
2022-08-20T21:14:28.587Z,98022.20
2022-08-20T21:17:36.805Z,98024.40
2022-08-20T21:20:45.987Z,98018.00
2022-08-20T21:23:56.136Z,98017.60
2022-08-20T21:27:04.534Z,98030.40
2022-08-20T21:30:14.606Z,98029.20
2022-08-20T21:33:23.096Z,98032.20
2022-08-20T21:36:31.386Z,98030.60
2022-08-20T21:39:39.822Z,98035.20
2022-08-20T21:42:47.821Z,98040.80
2022-08-20T21:45:56.938Z,98039.80
2022-08-20T21:49:05.427Z,98037.20
2022-08-20T21:52:13.438Z,98037.80
2022-08-20T21:55:21.565Z,98039.40
2022-08-20T21:58:29.565Z,98026.00
2022-08-20T22:01:38.644Z,98021.40
2022-08-20T22:04:47.427Z,98020.60
2022-08-20T22:07:55.366Z,98024.20
2022-08-20T22:11:04.364Z,98026.00
2022-08-20T22:14:16.843Z,98016.60
2022-08-20T22:17:25.387Z,98015.00
2022-08-20T22:20:33.802Z,98013.80
2022-08-20T22:23:41.950Z,98009.00
2022-08-20T22:26:49.754Z,98011.00
2022-08-20T22:29:57.770Z,98009.20
2022-08-20T22:33:14.477Z,98005.80
2022-08-20T22:36:24.299Z,98008.60
2022-08-20T22:39:32.754Z,98021.80
2022-08-20T22:42:41.160Z,98020.00
2022-08-20T22:45:53.642Z,98021.40
2022-08-20T22:49:02.160Z,98019.80
2022-08-20T22:52:12.276Z,98017.60
2022-08-20T22:55:20.574Z,98021.40
2022-08-20T22:58:31.185Z,98015.00
2022-08-20T23:01:39.909Z,98012.60
2022-08-20T23:04:48.271Z,98008.40
2022-08-20T23:08:01.773Z,98000.00
2022-08-20T23:11:10.561Z,98002.00
2022-08-20T23:14:23.819Z,97996.60
2022-08-20T23:17:35.911Z,97991.80
2022-08-20T23:20:46.912Z,97984.80
2022-08-20T23:23:54.688Z,97975.20
2022-08-20T23:27:02.962Z,97977.40
2022-08-20T23:30:13.273Z,97980.00
2022-08-20T23:33:21.952Z,97981.20
2022-08-20T23:36:30.196Z,97981.00
2022-08-20T23:39:38.711Z,97982.20
2022-08-20T23:42:46.592Z,97976.20
2022-08-20T23:46:04.289Z,97973.40
2022-08-20T23:49:12.782Z,97970.00
2022-08-20T23:52:21.166Z,97973.20
2022-08-20T23:55:29.437Z,97970.20
2022-08-20T23:58:38.769Z,97965.00
